sensor_id;sensor_type;location;lat;lon;timestamp;P1;durP1;ratioP1;P2;durP2;ratioP2
20478;SDS011;10398;52.490;13.434;2024-02-21T00:00:17;8.13;;;2.27;;
20478;SDS011;10398;52.490;13.434;2024-02-21T00:02:44;9.50;;;2.83;;
20478;SDS011;10398;52.490;13.434;2024-02-21T00:05:10;9.83;;;2.20;;
20478;SDS011;10398;52.490;13.434;2024-02-21T00:07:35;12.93;;;2.33;;
20478;SDS011;10398;52.490;13.434;2024-02-21T00:10:01;9.87;;;2.77;;
20478;SDS011;10398;52.490;13.434;2024-02-21T00:12:28;16.87;;;2.40;;
20478;SDS011;10398;52.490;13.434;2024-02-21T00:14:54;13.40;;;2.10;;
20478;SDS011;10398;52.490;13.434;2024-02-21T00:17:19;6.37;;;2.07;;
20478;SDS011;10398;52.490;13.434;2024-02-21T00:19:45;12.07;;;3.17;;
20478;SDS011;10398;52.490;13.434;2024-02-21T00:22:10;16.00;;;3.40;;
20478;SDS011;10398;52.490;13.434;2024-02-21T00:24:36;11.33;;;2.73;;
20478;SDS011;10398;52.490;13.434;2024-02-21T00:27:02;7.60;;;2.03;;
20478;SDS011;10398;52.490;13.434;2024-02-21T00:29:28;13.87;;;2.50;;
20478;SDS011;10398;52.490;13.434;2024-02-21T00:31:53;10.33;;;1.97;;
20478;SDS011;10398;52.490;13.434;2024-02-21T00:34:19;7.53;;;2.03;;
20478;SDS011;10398;52.490;13.434;2024-02-21T00:36:45;16.20;;;2.30;;
20478;SDS011;10398;52.490;13.434;2024-02-21T00:39:10;6.00;;;1.37;;
20478;SDS011;10398;52.490;13.434;2024-02-21T00:41:36;8.73;;;2.10;;
20478;SDS011;10398;52.490;13.434;2024-02-21T00:44:02;12.33;;;2.00;;
20478;SDS011;10398;52.490;13.434;2024-02-21T00:46:30;12.03;;;2.20;;
20478;SDS011;10398;52.490;13.434;2024-02-21T00:48:56;7.40;;;2.73;;
20478;SDS011;10398;52.490;13.434;2024-02-21T00:51:21;12.13;;;2.27;;
20478;SDS011;10398;52.490;13.434;2024-02-21T00:53:47;13.60;;;1.53;;
20478;SDS011;10398;52.490;13.434;2024-02-21T00:56:12;11.60;;;3.20;;
20478;SDS011;10398;52.490;13.434;2024-02-21T00:58:38;14.03;;;1.90;;
20478;SDS011;10398;52.490;13.434;2024-02-21T01:01:04;15.17;;;2.83;;
20478;SDS011;10398;52.490;13.434;2024-02-21T01:03:29;9.47;;;2.27;;
20478;SDS011;10398;52.490;13.434;2024-02-21T01:05:55;4.93;;;1.30;;
20478;SDS011;10398;52.490;13.434;2024-02-21T01:08:21;7.53;;;1.20;;
20478;SDS011;10398;52.490;13.434;2024-02-21T01:10:46;6.20;;;1.60;;
20478;SDS011;10398;52.490;13.434;2024-02-21T01:13:12;5.33;;;1.93;;
20478;SDS011;10398;52.490;13.434;2024-02-21T01:15:37;10.70;;;1.80;;
20478;SDS011;10398;52.490;13.434;2024-02-21T01:18:03;5.27;;;2.00;;
20478;SDS011;10398;52.490;13.434;2024-02-21T01:20:30;7.07;;;2.20;;
20478;SDS011;10398;52.490;13.434;2024-02-21T01:22:55;9.47;;;2.07;;
20478;SDS011;10398;52.490;13.434;2024-02-21T01:25:21;3.93;;;1.43;;
20478;SDS011;10398;52.490;13.434;2024-02-21T01:27:47;14.57;;;2.03;;
20478;SDS011;10398;52.490;13.434;2024-02-21T01:30:12;11.37;;;2.30;;
20478;SDS011;10398;52.490;13.434;2024-02-21T01:32:38;7.10;;;2.40;;
20478;SDS011;10398;52.490;13.434;2024-02-21T01:35:04;5.73;;;1.33;;
20478;SDS011;10398;52.490;13.434;2024-02-21T01:37:29;13.57;;;2.27;;
20478;SDS011;10398;52.490;13.434;2024-02-21T01:39:55;9.60;;;1.70;;
20478;SDS011;10398;52.490;13.434;2024-02-21T01:42:21;9.50;;;1.97;;
20478;SDS011;10398;52.490;13.434;2024-02-21T01:44:46;9.73;;;2.00;;
20478;SDS011;10398;52.490;13.434;2024-02-21T01:47:12;8.23;;;2.20;;
20478;SDS011;10398;52.490;13.434;2024-02-21T01:49:40;6.53;;;1.43;;
20478;SDS011;10398;52.490;13.434;2024-02-21T01:52:06;8.93;;;1.77;;
20478;SDS011;10398;52.490;13.434;2024-02-21T01:54:33;12.83;;;2.20;;
20478;SDS011;10398;52.490;13.434;2024-02-21T01:56:58;7.30;;;1.43;;
20478;SDS011;10398;52.490;13.434;2024-02-21T01:59:24;9.87;;;1.63;;
20478;SDS011;10398;52.490;13.434;2024-02-21T02:01:51;8.00;;;2.17;;
20478;SDS011;10398;52.490;13.434;2024-02-21T02:04:18;12.83;;;2.63;;
20478;SDS011;10398;52.490;13.434;2024-02-21T02:06:45;12.20;;;2.27;;
20478;SDS011;10398;52.490;13.434;2024-02-21T02:09:11;7.40;;;1.60;;
20478;SDS011;10398;52.490;13.434;2024-02-21T02:11:37;8.30;;;1.90;;
20478;SDS011;10398;52.490;13.434;2024-02-21T02:14:02;4.70;;;1.20;;
20478;SDS011;10398;52.490;13.434;2024-02-21T02:16:28;13.17;;;2.37;;
20478;SDS011;10398;52.490;13.434;2024-02-21T02:18:53;8.60;;;1.77;;
20478;SDS011;10398;52.490;13.434;2024-02-21T02:21:29;8.53;;;1.70;;
20478;SDS011;10398;52.490;13.434;2024-02-21T02:23:57;8.60;;;1.80;;
20478;SDS011;10398;52.490;13.434;2024-02-21T02:26:24;7.97;;;1.83;;
20478;SDS011;10398;52.490;13.434;2024-02-21T02:28:49;6.30;;;1.50;;
20478;SDS011;10398;52.490;13.434;2024-02-21T02:31:15;14.50;;;2.10;;
20478;SDS011;10398;52.490;13.434;2024-02-21T02:33:42;14.63;;;2.43;;
20478;SDS011;10398;52.490;13.434;2024-02-21T02:36:09;10.73;;;2.20;;
20478;SDS011;10398;52.490;13.434;2024-02-21T02:38:35;11.70;;;1.80;;
20478;SDS011;10398;52.490;13.434;2024-02-21T02:41:00;8.50;;;2.20;;
20478;SDS011;10398;52.490;13.434;2024-02-21T02:43:26;7.80;;;1.73;;
20478;SDS011;10398;52.490;13.434;2024-02-21T02:45:52;7.23;;;1.77;;
20478;SDS011;10398;52.490;13.434;2024-02-21T02:48:17;6.20;;;1.60;;
20478;SDS011;10398;52.490;13.434;2024-02-21T02:50:44;4.57;;;1.80;;
20478;SDS011;10398;52.490;13.434;2024-02-21T02:53:11;9.57;;;1.80;;
20478;SDS011;10398;52.490;13.434;2024-02-21T02:55:36;7.20;;;1.87;;
20478;SDS011;10398;52.490;13.434;2024-02-21T02:58:02;7.63;;;1.80;;
20478;SDS011;10398;52.490;13.434;2024-02-21T03:00:28;5.50;;;1.70;;
20478;SDS011;10398;52.490;13.434;2024-02-21T03:02:53;11.30;;;1.97;;
20478;SDS011;10398;52.490;13.434;2024-02-21T03:05:19;12.30;;;2.07;;
20478;SDS011;10398;52.490;13.434;2024-02-21T03:07:46;9.53;;;2.07;;
20478;SDS011;10398;52.490;13.434;2024-02-21T03:10:13;7.77;;;1.77;;
20478;SDS011;10398;52.490;13.434;2024-02-21T03:12:41;5.63;;;1.50;;
20478;SDS011;10398;52.490;13.434;2024-02-21T03:15:07;4.77;;;1.90;;
20478;SDS011;10398;52.490;13.434;2024-02-21T03:17:33;18.23;;;2.43;;
20478;SDS011;10398;52.490;13.434;2024-02-21T03:19:59;11.87;;;2.10;;
20478;SDS011;10398;52.490;13.434;2024-02-21T03:22:25;10.20;;;1.90;;
20478;SDS011;10398;52.490;13.434;2024-02-21T03:24:51;6.40;;;1.73;;
20478;SDS011;10398;52.490;13.434;2024-02-21T03:27:17;8.93;;;1.40;;
20478;SDS011;10398;52.490;13.434;2024-02-21T03:29:42;10.33;;;2.07;;
20478;SDS011;10398;52.490;13.434;2024-02-21T03:32:08;15.27;;;2.23;;
20478;SDS011;10398;52.490;13.434;2024-02-21T03:34:34;11.70;;;1.90;;
20478;SDS011;10398;52.490;13.434;2024-02-21T03:37:00;7.80;;;2.00;;
20478;SDS011;10398;52.490;13.434;2024-02-21T03:39:26;7.90;;;2.20;;
20478;SDS011;10398;52.490;13.434;2024-02-21T03:41:52;10.50;;;1.90;;
20478;SDS011;10398;52.490;13.434;2024-02-21T03:44:18;5.80;;;1.80;;
20478;SDS011;10398;52.490;13.434;2024-02-21T03:46:44;12.10;;;2.23;;
20478;SDS011;10398;52.490;13.434;2024-02-21T03:49:10;6.60;;;1.57;;
20478;SDS011;10398;52.490;13.434;2024-02-21T03:51:35;6.93;;;1.43;;
20478;SDS011;10398;52.490;13.434;2024-02-21T03:54:01;7.50;;;1.90;;
20478;SDS011;10398;52.490;13.434;2024-02-21T03:56:26;7.20;;;1.90;;
20478;SDS011;10398;52.490;13.434;2024-02-21T03:58:52;6.00;;;1.90;;
20478;SDS011;10398;52.490;13.434;2024-02-21T04:01:18;11.43;;;2.37;;
20478;SDS011;10398;52.490;13.434;2024-02-21T04:03:44;13.33;;;2.37;;
20478;SDS011;10398;52.490;13.434;2024-02-21T04:06:09;8.83;;;2.27;;
20478;SDS011;10398;52.490;13.434;2024-02-21T04:08:35;8.87;;;1.80;;
20478;SDS011;10398;52.490;13.434;2024-02-21T04:11:01;14.53;;;2.80;;
20478;SDS011;10398;52.490;13.434;2024-02-21T04:13:27;6.73;;;1.90;;
20478;SDS011;10398;52.490;13.434;2024-02-21T04:15:52;8.73;;;1.87;;
20478;SDS011;10398;52.490;13.434;2024-02-21T04:18:18;4.37;;;2.27;;
20478;SDS011;10398;52.490;13.434;2024-02-21T04:20:44;11.87;;;2.33;;
20478;SDS011;10398;52.490;13.434;2024-02-21T04:23:10;5.23;;;1.93;;
20478;SDS011;10398;52.490;13.434;2024-02-21T04:25:35;5.60;;;2.37;;
20478;SDS011;10398;52.490;13.434;2024-02-21T04:28:01;7.40;;;2.47;;
20478;SDS011;10398;52.490;13.434;2024-02-21T04:30:28;9.67;;;2.03;;
20478;SDS011;10398;52.490;13.434;2024-02-21T04:32:53;12.47;;;1.87;;
20478;SDS011;10398;52.490;13.434;2024-02-21T04:35:19;10.20;;;2.40;;
20478;SDS011;10398;52.490;13.434;2024-02-21T04:37:45;13.17;;;1.77;;
20478;SDS011;10398;52.490;13.434;2024-02-21T04:40:10;10.27;;;2.10;;
20478;SDS011;10398;52.490;13.434;2024-02-21T04:42:36;6.87;;;2.13;;
20478;SDS011;10398;52.490;13.434;2024-02-21T04:45:02;12.33;;;2.77;;
20478;SDS011;10398;52.490;13.434;2024-02-21T04:47:28;11.53;;;2.30;;
20478;SDS011;10398;52.490;13.434;2024-02-21T04:49:53;12.47;;;2.20;;
20478;SDS011;10398;52.490;13.434;2024-02-21T04:52:19;12.10;;;2.90;;
20478;SDS011;10398;52.490;13.434;2024-02-21T04:54:44;13.13;;;2.13;;
20478;SDS011;10398;52.490;13.434;2024-02-21T04:57:10;4.23;;;2.00;;
20478;SDS011;10398;52.490;13.434;2024-02-21T04:59:36;9.33;;;2.17;;
20478;SDS011;10398;52.490;13.434;2024-02-21T05:02:02;10.03;;;2.30;;
20478;SDS011;10398;52.490;13.434;2024-02-21T05:04:28;10.33;;;2.60;;
20478;SDS011;10398;52.490;13.434;2024-02-21T05:06:53;11.37;;;2.63;;
20478;SDS011;10398;52.490;13.434;2024-02-21T05:09:19;11.20;;;2.17;;
20478;SDS011;10398;52.490;13.434;2024-02-21T05:11:45;16.17;;;3.63;;
20478;SDS011;10398;52.490;13.434;2024-02-21T05:14:11;9.57;;;2.20;;
20478;SDS011;10398;52.490;13.434;2024-02-21T05:16:36;7.60;;;2.27;;
20478;SDS011;10398;52.490;13.434;2024-02-21T05:19:04;7.10;;;2.10;;
20478;SDS011;10398;52.490;13.434;2024-02-21T05:21:29;7.47;;;2.03;;
20478;SDS011;10398;52.490;13.434;2024-02-21T05:23:55;10.40;;;2.27;;
20478;SDS011;10398;52.490;13.434;2024-02-21T05:26:21;9.40;;;2.53;;
20478;SDS011;10398;52.490;13.434;2024-02-21T05:28:48;9.77;;;2.73;;
20478;SDS011;10398;52.490;13.434;2024-02-21T05:31:15;11.10;;;2.30;;
20478;SDS011;10398;52.490;13.434;2024-02-21T05:33:41;9.17;;;2.40;;
20478;SDS011;10398;52.490;13.434;2024-02-21T05:36:08;9.53;;;2.03;;
20478;SDS011;10398;52.490;13.434;2024-02-21T05:38:33;6.80;;;2.33;;
20478;SDS011;10398;52.490;13.434;2024-02-21T05:41:00;5.03;;;1.87;;
20478;SDS011;10398;52.490;13.434;2024-02-21T05:43:26;18.20;;;2.70;;
20478;SDS011;10398;52.490;13.434;2024-02-21T05:45:51;6.77;;;2.50;;
20478;SDS011;10398;52.490;13.434;2024-02-21T05:48:17;8.63;;;3.10;;
20478;SDS011;10398;52.490;13.434;2024-02-21T05:50:43;9.60;;;3.20;;
20478;SDS011;10398;52.490;13.434;2024-02-21T05:53:08;11.83;;;2.50;;
20478;SDS011;10398;52.490;13.434;2024-02-21T05:55:35;10.73;;;2.67;;
20478;SDS011;10398;52.490;13.434;2024-02-21T05:58:00;16.20;;;3.23;;
20478;SDS011;10398;52.490;13.434;2024-02-21T06:00:27;6.37;;;2.27;;
20478;SDS011;10398;52.490;13.434;2024-02-21T06:02:53;8.00;;;2.93;;
20478;SDS011;10398;52.490;13.434;2024-02-21T06:05:19;9.57;;;3.43;;
20478;SDS011;10398;52.490;13.434;2024-02-21T06:07:44;10.70;;;2.30;;
20478;SDS011;10398;52.490;13.434;2024-02-21T06:10:10;12.53;;;3.37;;
20478;SDS011;10398;52.490;13.434;2024-02-21T06:12:36;9.53;;;3.03;;
20478;SDS011;10398;52.490;13.434;2024-02-21T06:15:01;4.47;;;2.63;;
20478;SDS011;10398;52.490;13.434;2024-02-21T06:17:28;16.20;;;2.87;;
20478;SDS011;10398;52.490;13.434;2024-02-21T06:19:53;7.87;;;2.30;;
20478;SDS011;10398;52.490;13.434;2024-02-21T06:22:19;12.73;;;2.93;;
20478;SDS011;10398;52.490;13.434;2024-02-21T06:24:44;6.93;;;2.73;;
20478;SDS011;10398;52.490;13.434;2024-02-21T06:27:10;16.43;;;3.57;;
20478;SDS011;10398;52.490;13.434;2024-02-21T06:29:36;9.67;;;3.10;;
20478;SDS011;10398;52.490;13.434;2024-02-21T06:32:02;7.63;;;2.97;;
20478;SDS011;10398;52.490;13.434;2024-02-21T06:34:28;11.77;;;3.30;;
20478;SDS011;10398;52.490;13.434;2024-02-21T06:36:54;12.23;;;3.10;;
20478;SDS011;10398;52.490;13.434;2024-02-21T06:39:19;14.43;;;3.20;;
20478;SDS011;10398;52.490;13.434;2024-02-21T06:41:46;11.27;;;2.83;;
20478;SDS011;10398;52.490;13.434;2024-02-21T06:44:15;8.40;;;3.03;;
20478;SDS011;10398;52.490;13.434;2024-02-21T06:46:41;9.43;;;3.17;;
20478;SDS011;10398;52.490;13.434;2024-02-21T06:49:07;10.90;;;3.03;;
20478;SDS011;10398;52.490;13.434;2024-02-21T06:51:32;7.30;;;2.77;;
20478;SDS011;10398;52.490;13.434;2024-02-21T06:53:59;10.40;;;2.73;;
20478;SDS011;10398;52.490;13.434;2024-02-21T06:56:25;11.83;;;3.03;;
20478;SDS011;10398;52.490;13.434;2024-02-21T06:58:54;13.87;;;3.40;;
20478;SDS011;10398;52.490;13.434;2024-02-21T07:01:21;10.37;;;3.27;;
20478;SDS011;10398;52.490;13.434;2024-02-21T07:03:46;8.47;;;2.80;;
20478;SDS011;10398;52.490;13.434;2024-02-21T07:06:12;8.27;;;2.80;;
20478;SDS011;10398;52.490;13.434;2024-02-21T07:08:38;8.00;;;2.80;;
20478;SDS011;10398;52.490;13.434;2024-02-21T07:11:04;15.67;;;3.40;;
20478;SDS011;10398;52.490;13.434;2024-02-21T07:13:30;13.73;;;2.90;;
20478;SDS011;10398;52.490;13.434;2024-02-21T07:15:55;13.37;;;3.40;;
20478;SDS011;10398;52.490;13.434;2024-02-21T07:18:21;6.97;;;2.53;;
20478;SDS011;10398;52.490;13.434;2024-02-21T07:20:47;11.73;;;3.33;;
20478;SDS011;10398;52.490;13.434;2024-02-21T07:23:12;13.57;;;3.30;;
20478;SDS011;10398;52.490;13.434;2024-02-21T07:25:38;10.07;;;2.67;;
20478;SDS011;10398;52.490;13.434;2024-02-21T07:28:04;10.13;;;2.73;;
20478;SDS011;10398;52.490;13.434;2024-02-21T07:30:30;16.07;;;3.30;;
20478;SDS011;10398;52.490;13.434;2024-02-21T07:32:56;11.17;;;2.70;;
20478;SDS011;10398;52.490;13.434;2024-02-21T07:35:21;9.17;;;2.80;;
20478;SDS011;10398;52.490;13.434;2024-02-21T07:37:47;7.37;;;2.40;;
20478;SDS011;10398;52.490;13.434;2024-02-21T07:40:13;9.57;;;3.07;;
20478;SDS011;10398;52.490;13.434;2024-02-21T07:42:40;9.70;;;2.53;;
20478;SDS011;10398;52.490;13.434;2024-02-21T07:45:06;9.93;;;3.10;;
20478;SDS011;10398;52.490;13.434;2024-02-21T07:47:32;13.20;;;3.00;;
20478;SDS011;10398;52.490;13.434;2024-02-21T07:49:58;6.97;;;2.50;;
20478;SDS011;10398;52.490;13.434;2024-02-21T07:52:24;15.87;;;3.10;;
20478;SDS011;10398;52.490;13.434;2024-02-21T07:54:50;10.40;;;3.03;;
20478;SDS011;10398;52.490;13.434;2024-02-21T07:57:15;7.03;;;2.57;;
20478;SDS011;10398;52.490;13.434;2024-02-21T07:59:41;5.07;;;2.03;;
20478;SDS011;10398;52.490;13.434;2024-02-21T08:02:07;7.03;;;2.17;;
20478;SDS011;10398;52.490;13.434;2024-02-21T08:04:33;10.37;;;2.53;;
20478;SDS011;10398;52.490;13.434;2024-02-21T08:06:58;7.60;;;2.07;;
20478;SDS011;10398;52.490;13.434;2024-02-21T08:09:27;5.87;;;2.03;;
20478;SDS011;10398;52.490;13.434;2024-02-21T08:11:54;7.90;;;2.07;;
20478;SDS011;10398;52.490;13.434;2024-02-21T08:14:19;8.83;;;2.60;;
20478;SDS011;10398;52.490;13.434;2024-02-21T08:16:45;10.70;;;2.60;;
20478;SDS011;10398;52.490;13.434;2024-02-21T08:19:11;6.70;;;2.37;;
20478;SDS011;10398;52.490;13.434;2024-02-21T08:21:37;8.90;;;3.27;;
20478;SDS011;10398;52.490;13.434;2024-02-21T08:24:02;8.30;;;2.97;;
20478;SDS011;10398;52.490;13.434;2024-02-21T08:26:28;13.97;;;3.10;;
20478;SDS011;10398;52.490;13.434;2024-02-21T08:28:56;9.60;;;3.30;;
20478;SDS011;10398;52.490;13.434;2024-02-21T08:31:24;9.80;;;2.93;;
20478;SDS011;10398;52.490;13.434;2024-02-21T08:33:56;7.83;;;2.50;;
20478;SDS011;10398;52.490;13.434;2024-02-21T08:36:27;14.53;;;3.30;;
20478;SDS011;10398;52.490;13.434;2024-02-21T08:38:54;7.07;;;2.30;;
20478;SDS011;10398;52.490;13.434;2024-02-21T08:41:19;6.73;;;2.63;;
20478;SDS011;10398;52.490;13.434;2024-02-21T08:43:47;5.07;;;2.90;;
20478;SDS011;10398;52.490;13.434;2024-02-21T08:46:13;9.13;;;2.90;;
20478;SDS011;10398;52.490;13.434;2024-02-21T08:48:38;8.07;;;2.70;;
20478;SDS011;10398;52.490;13.434;2024-02-21T08:51:04;11.87;;;3.00;;
20478;SDS011;10398;52.490;13.434;2024-02-21T08:53:30;11.27;;;3.77;;
20478;SDS011;10398;52.490;13.434;2024-02-21T08:55:56;8.83;;;3.27;;
20478;SDS011;10398;52.490;13.434;2024-02-21T08:58:22;7.80;;;3.27;;
20478;SDS011;10398;52.490;13.434;2024-02-21T09:00:49;7.70;;;3.47;;
20478;SDS011;10398;52.490;13.434;2024-02-21T09:03:16;7.37;;;3.23;;
20478;SDS011;10398;52.490;13.434;2024-02-21T09:05:42;11.27;;;3.47;;
20478;SDS011;10398;52.490;13.434;2024-02-21T09:08:08;9.37;;;2.83;;
20478;SDS011;10398;52.490;13.434;2024-02-21T09:10:34;14.00;;;3.67;;
20478;SDS011;10398;52.490;13.434;2024-02-21T09:12:59;14.37;;;3.93;;
20478;SDS011;10398;52.490;13.434;2024-02-21T09:15:25;12.37;;;3.80;;
20478;SDS011;10398;52.490;13.434;2024-02-21T09:17:51;9.20;;;3.53;;
20478;SDS011;10398;52.490;13.434;2024-02-21T09:20:17;9.63;;;3.33;;
20478;SDS011;10398;52.490;13.434;2024-02-21T09:22:43;12.00;;;4.23;;
20478;SDS011;10398;52.490;13.434;2024-02-21T09:25:08;6.40;;;3.13;;
20478;SDS011;10398;52.490;13.434;2024-02-21T09:27:37;15.83;;;4.07;;
20478;SDS011;10398;52.490;13.434;2024-02-21T09:30:04;13.50;;;3.33;;
20478;SDS011;10398;52.490;13.434;2024-02-21T09:32:31;13.10;;;4.20;;
20478;SDS011;10398;52.490;13.434;2024-02-21T09:34:57;12.23;;;3.73;;
20478;SDS011;10398;52.490;13.434;2024-02-21T09:37:23;12.17;;;3.93;;
20478;SDS011;10398;52.490;13.434;2024-02-21T09:39:49;12.83;;;4.30;;
20478;SDS011;10398;52.490;13.434;2024-02-21T09:42:18;9.77;;;3.20;;
20478;SDS011;10398;52.490;13.434;2024-02-21T09:44:46;12.23;;;4.30;;
20478;SDS011;10398;52.490;13.434;2024-02-21T09:47:15;7.40;;;3.10;;
20478;SDS011;10398;52.490;13.434;2024-02-21T09:49:59;18.87;;;4.50;;
20478;SDS011;10398;52.490;13.434;2024-02-21T09:52:26;9.33;;;4.03;;
20478;SDS011;10398;52.490;13.434;2024-02-21T09:54:55;14.07;;;4.00;;
20478;SDS011;10398;52.490;13.434;2024-02-21T09:57:23;15.70;;;4.33;;
20478;SDS011;10398;52.490;13.434;2024-02-21T09:59:50;10.43;;;4.33;;
20478;SDS011;10398;52.490;13.434;2024-02-21T10:02:17;13.47;;;3.80;;
20478;SDS011;10398;52.490;13.434;2024-02-21T10:04:43;12.20;;;4.17;;
20478;SDS011;10398;52.490;13.434;2024-02-21T10:07:09;12.33;;;3.93;;
20478;SDS011;10398;52.490;13.434;2024-02-21T10:09:36;14.73;;;4.27;;
20478;SDS011;10398;52.490;13.434;2024-02-21T10:12:08;12.03;;;3.80;;
20478;SDS011;10398;52.490;13.434;2024-02-21T10:14:35;14.17;;;3.60;;
20478;SDS011;10398;52.490;13.434;2024-02-21T10:17:01;13.13;;;4.60;;
20478;SDS011;10398;52.490;13.434;2024-02-21T10:19:27;10.23;;;4.13;;
20478;SDS011;10398;52.490;13.434;2024-02-21T10:22:07;14.00;;;3.70;;
20478;SDS011;10398;52.490;13.434;2024-02-21T10:24:34;7.40;;;2.90;;
20478;SDS011;10398;52.490;13.434;2024-02-21T10:27:03;12.67;;;3.73;;
20478;SDS011;10398;52.490;13.434;2024-02-21T10:29:33;13.63;;;4.27;;
20478;SDS011;10398;52.490;13.434;2024-02-21T10:32:12;11.43;;;4.23;;
20478;SDS011;10398;52.490;13.434;2024-02-21T10:34:39;14.63;;;4.13;;
20478;SDS011;10398;52.490;13.434;2024-02-21T10:37:06;9.53;;;4.17;;
20478;SDS011;10398;52.490;13.434;2024-02-21T10:39:42;11.90;;;3.33;;
20478;SDS011;10398;52.490;13.434;2024-02-21T10:42:12;13.50;;;3.53;;
20478;SDS011;10398;52.490;13.434;2024-02-21T10:44:42;8.97;;;3.30;;
20478;SDS011;10398;52.490;13.434;2024-02-21T10:47:10;8.40;;;3.50;;
20478;SDS011;10398;52.490;13.434;2024-02-21T10:49:39;12.50;;;3.43;;
20478;SDS011;10398;52.490;13.434;2024-02-21T10:52:13;15.80;;;3.57;;
20478;SDS011;10398;52.490;13.434;2024-02-21T10:55:16;7.43;;;3.27;;
20478;SDS011;10398;52.490;13.434;2024-02-21T10:57:51;8.50;;;3.00;;
20478;SDS011;10398;52.490;13.434;2024-02-21T11:00:18;12.10;;;3.53;;
20478;SDS011;10398;52.490;13.434;2024-02-21T11:02:44;9.17;;;3.67;;
20478;SDS011;10398;52.490;13.434;2024-02-21T11:05:12;10.33;;;3.47;;
20478;SDS011;10398;52.490;13.434;2024-02-21T11:07:39;7.63;;;3.77;;
20478;SDS011;10398;52.490;13.434;2024-02-21T11:10:06;11.13;;;3.23;;
20478;SDS011;10398;52.490;13.434;2024-02-21T11:12:47;10.00;;;3.57;;
20478;SDS011;10398;52.490;13.434;2024-02-21T11:15:13;7.83;;;3.30;;
20478;SDS011;10398;52.490;13.434;2024-02-21T11:17:39;6.77;;;2.90;;
20478;SDS011;10398;52.490;13.434;2024-02-21T11:20:12;7.53;;;3.20;;
20478;SDS011;10398;52.490;13.434;2024-02-21T11:22:42;9.07;;;3.23;;
20478;SDS011;10398;52.490;13.434;2024-02-21T11:25:08;9.90;;;3.93;;
20478;SDS011;10398;52.490;13.434;2024-02-21T11:27:36;9.83;;;2.83;;
20478;SDS011;10398;52.490;13.434;2024-02-21T11:30:04;7.60;;;3.53;;
20478;SDS011;10398;52.490;13.434;2024-02-21T11:32:31;8.07;;;3.13;;
20478;SDS011;10398;52.490;13.434;2024-02-21T11:34:57;22.60;;;3.80;;
20478;SDS011;10398;52.490;13.434;2024-02-21T11:37:29;8.00;;;3.17;;
20478;SDS011;10398;52.490;13.434;2024-02-21T11:39:55;6.43;;;2.33;;
20478;SDS011;10398;52.490;13.434;2024-02-21T11:42:21;10.40;;;3.03;;
20478;SDS011;10398;52.490;13.434;2024-02-21T11:44:47;7.80;;;2.97;;
20478;SDS011;10398;52.490;13.434;2024-02-21T11:47:14;7.90;;;2.67;;
20478;SDS011;10398;52.490;13.434;2024-02-21T11:49:44;11.73;;;2.80;;
20478;SDS011;10398;52.490;13.434;2024-02-21T11:52:11;8.30;;;3.73;;
20478;SDS011;10398;52.490;13.434;2024-02-21T11:54:40;7.70;;;3.27;;
20478;SDS011;10398;52.490;13.434;2024-02-21T11:57:06;21.93;;;7.80;;
20478;SDS011;10398;52.490;13.434;2024-02-21T11:59:32;11.27;;;3.30;;
20478;SDS011;10398;52.490;13.434;2024-02-21T12:01:59;9.87;;;3.70;;
20478;SDS011;10398;52.490;13.434;2024-02-21T12:04:25;15.30;;;4.53;;
20478;SDS011;10398;52.490;13.434;2024-02-21T12:06:54;9.60;;;3.13;;
20478;SDS011;10398;52.490;13.434;2024-02-21T12:09:20;9.53;;;3.33;;
20478;SDS011;10398;52.490;13.434;2024-02-21T12:11:56;10.57;;;3.23;;
20478;SDS011;10398;52.490;13.434;2024-02-21T12:14:34;7.23;;;3.17;;
20478;SDS011;10398;52.490;13.434;2024-02-21T12:17:00;18.67;;;5.83;;
20478;SDS011;10398;52.490;13.434;2024-02-21T12:19:28;9.57;;;2.73;;
20478;SDS011;10398;52.490;13.434;2024-02-21T12:21:54;10.17;;;3.13;;
20478;SDS011;10398;52.490;13.434;2024-02-21T12:24:26;8.87;;;3.23;;
20478;SDS011;10398;52.490;13.434;2024-02-21T12:26:52;7.93;;;3.17;;
20478;SDS011;10398;52.490;13.434;2024-02-21T12:29:22;10.43;;;3.03;;
20478;SDS011;10398;52.490;13.434;2024-02-21T12:31:49;9.50;;;3.10;;
20478;SDS011;10398;52.490;13.434;2024-02-21T12:34:15;7.17;;;2.63;;
20478;SDS011;10398;52.490;13.434;2024-02-21T12:36:42;5.83;;;2.07;;
20478;SDS011;10398;52.490;13.434;2024-02-21T12:39:09;9.07;;;3.00;;
20478;SDS011;10398;52.490;13.434;2024-02-21T12:41:35;5.60;;;2.30;;
20478;SDS011;10398;52.490;13.434;2024-02-21T12:44:04;7.23;;;2.47;;
20478;SDS011;10398;52.490;13.434;2024-02-21T12:46:32;5.63;;;2.23;;
20478;SDS011;10398;52.490;13.434;2024-02-21T12:48:58;6.13;;;2.33;;
20478;SDS011;10398;52.490;13.434;2024-02-21T12:51:24;8.47;;;2.63;;
20478;SDS011;10398;52.490;13.434;2024-02-21T12:53:50;11.57;;;2.50;;
20478;SDS011;10398;52.490;13.434;2024-02-21T12:56:16;5.87;;;2.23;;
20478;SDS011;10398;52.490;13.434;2024-02-21T12:58:41;7.80;;;2.27;;
20478;SDS011;10398;52.490;13.434;2024-02-21T13:01:07;4.90;;;2.20;;
20478;SDS011;10398;52.490;13.434;2024-02-21T13:03:33;4.93;;;1.67;;
20478;SDS011;10398;52.490;13.434;2024-02-21T13:05:59;5.50;;;1.93;;
20478;SDS011;10398;52.490;13.434;2024-02-21T13:08:24;5.53;;;2.20;;
20478;SDS011;10398;52.490;13.434;2024-02-21T13:10:50;9.77;;;2.10;;
20478;SDS011;10398;52.490;13.434;2024-02-21T13:13:16;6.70;;;2.67;;
20478;SDS011;10398;52.490;13.434;2024-02-21T13:15:44;5.20;;;2.40;;
20478;SDS011;10398;52.490;13.434;2024-02-21T13:18:10;12.67;;;2.40;;
20478;SDS011;10398;52.490;13.434;2024-02-21T13:20:36;9.73;;;2.00;;
20478;SDS011;10398;52.490;13.434;2024-02-21T13:23:02;6.87;;;2.13;;
20478;SDS011;10398;52.490;13.434;2024-02-21T13:25:28;4.60;;;2.20;;
20478;SDS011;10398;52.490;13.434;2024-02-21T13:27:54;10.90;;;3.17;;
20478;SDS011;10398;52.490;13.434;2024-02-21T13:30:21;7.37;;;2.50;;
20478;SDS011;10398;52.490;13.434;2024-02-21T13:32:47;8.40;;;2.73;;
20478;SDS011;10398;52.490;13.434;2024-02-21T13:35:12;8.57;;;3.10;;
20478;SDS011;10398;52.490;13.434;2024-02-21T13:37:38;10.20;;;3.20;;
20478;SDS011;10398;52.490;13.434;2024-02-21T13:40:05;5.07;;;2.50;;
20478;SDS011;10398;52.490;13.434;2024-02-21T13:42:31;9.37;;;2.57;;
20478;SDS011;10398;52.490;13.434;2024-02-21T13:44:56;7.83;;;2.80;;
20478;SDS011;10398;52.490;13.434;2024-02-21T13:47:22;7.10;;;3.03;;
20478;SDS011;10398;52.490;13.434;2024-02-21T13:49:48;9.53;;;2.53;;
20478;SDS011;10398;52.490;13.434;2024-02-21T13:52:14;7.63;;;2.70;;
20478;SDS011;10398;52.490;13.434;2024-02-21T13:54:40;7.63;;;2.83;;
20478;SDS011;10398;52.490;13.434;2024-02-21T13:57:06;6.20;;;2.63;;
20478;SDS011;10398;52.490;13.434;2024-02-21T13:59:32;9.77;;;3.13;;
20478;SDS011;10398;52.490;13.434;2024-02-21T14:01:58;7.13;;;2.77;;
20478;SDS011;10398;52.490;13.434;2024-02-21T14:04:24;9.60;;;2.70;;
20478;SDS011;10398;52.490;13.434;2024-02-21T14:06:50;8.83;;;2.60;;
20478;SDS011;10398;52.490;13.434;2024-02-21T14:09:17;9.30;;;3.23;;
20478;SDS011;10398;52.490;13.434;2024-02-21T14:11:44;8.83;;;3.03;;
20478;SDS011;10398;52.490;13.434;2024-02-21T14:14:10;8.47;;;3.43;;
20478;SDS011;10398;52.490;13.434;2024-02-21T14:16:36;9.93;;;3.50;;
20478;SDS011;10398;52.490;13.434;2024-02-21T14:19:02;14.83;;;4.20;;
20478;SDS011;10398;52.490;13.434;2024-02-21T14:21:27;10.77;;;3.77;;
20478;SDS011;10398;52.490;13.434;2024-02-21T14:23:53;10.60;;;4.37;;